Aeroporto :
LOGIN :

Iscrizione | Disclaimer

   EN    FR    IT 

 










Sommario :    VFR   VFR Marginale   IFR   IFR Intensivo   IFR Molto Intensivo
Visibilità : 
Base nubi : 
>= 8 km
>= 3000ft
5 / 8 km
1000 / 3000 ft
1500m / 5 km
500 / 1000 ft
800 / 1500m
200 / 500 ft
< 800m
< 200 ft
Simboli :   Temporali  Nebbia  Neve Forte  Precipitazioni Forti  Vento > 20 kt
SIGMETs :   Varie  Temporali  Ghiacco  Turbolenza  Onda orograficha  Ceneri Vulcaniche






- Altitudine del aeroporto : 614 ft
- Codice IATA : CRL


EBCI - Charleroi

ULTIMO METAR :
  • 160250Z 25003KT 210V290 7000 BKN039 M01/M02 Q1029 R24/290195 NOSIG

METARs OBSOLETI :
  • 160220Z VRB01KT 7000 BKN038 M01/M02 Q1029 R24/290195 NOSIG
  • 160150Z VRB01KT 7000 BKN038 M01/M02 Q1029 R24/290195 NOSIG
  • 160120Z 00000KT 9000 BKN038 M01/M03 Q1029 R24/290195 NOSIG
  • 160050Z VRB02KT 7000 BKN038 M01/M02 Q1029 R24/290195 NOSIG
  • 160020Z 20003KT 6000 BKN038 M01/M02 Q1029 R24/290195 NOSIG

TAF TAF EBCI
Valido dal 16 a 00 ore il 17 a 06 ore UTC


152310Z 1600/1706 19004KT 9999 SCT040
PROB40
TEMPO 1602/1608 2500 BR BKN004
BECMG 1613/1615 BKN006
TEMPO 1613/1619 0800 SN BKN002
PROB40
TEMPO 1619/1624 1800 -SN BKN003
PROB40
TEMPO 1700/1706 3000 -DZ BKN003



MetMap, La meteo Aeronautica in un colpo d'occhio ! - Copyright ORBIFLY Dicembre 2007 - Disclaimer

ORBIFLY MET'MAP TEAM :

Programmazione e sviluppo : Alexandra Zaïnal
Concezione : Baudouin d'Aumeries
Aiuto per la programmazione : Marc-Olivier Méhu
Supporto tecnico e logistico : Manuel Goepfert
Aiuto per la traduzione : Arnaldo La Scala

Contatto : metmap@orbifly.com




FONTI E CREDITI :

   NOAA